createdAt,value
2019-02-28T03:08:05.527Z,10.5
2019-02-28T03:08:47.589Z,10.6
2019-02-28T03:09:36.942Z,10.5
2019-02-28T03:10:27.711Z,10.6
2019-02-28T03:11:16.981Z,10.6
2019-02-28T03:12:07.632Z,10.6
2019-02-28T03:12:56.492Z,10.6
2019-02-28T03:13:52.465Z,10.6
2019-02-28T03:14:36.734Z,10.6
2019-02-28T03:15:34.763Z,10.6
2019-02-28T03:16:17.831Z,10.6
2019-02-28T03:17:16.728Z,10.6
2019-02-28T03:17:57.766Z,10.6
2019-02-28T03:18:46.958Z,10.6
2019-02-28T03:19:42.772Z,10.6
2019-02-28T03:20:27.614Z,10.6
2019-02-28T03:21:23.119Z,10.6
2019-02-28T03:22:07.591Z,10.6
2019-02-28T03:23:03.282Z,10.6
2019-02-28T03:23:48.229Z,10.6
2019-02-28T03:24:37.706Z,10.6
2019-02-28T03:25:36.047Z,10.6
2019-02-28T03:26:18.641Z,10.6
2019-02-28T03:27:08.228Z,10.6
2019-02-28T03:28:04.417Z,10.6
2019-02-28T03:28:47.882Z,10.6
2019-02-28T03:29:46.315Z,10.6
2019-02-28T03:30:41.676Z,10.6
2019-02-28T03:31:23.911Z,10.6
2019-02-28T03:32:08.643Z,10.6
2019-02-28T03:32:58.543Z,10.6
2019-02-28T03:33:49.726Z,10.6
2019-02-28T03:34:39.859Z,10.6
2019-02-28T03:35:46.624Z,10.6
2019-02-28T03:36:24.848Z,10.6
2019-02-28T03:37:08.820Z,10.6
2019-02-28T03:37:59.145Z,10.6
2019-02-28T03:38:57.780Z,10.6
2019-02-28T03:39:38.197Z,10.6
2019-02-28T03:40:29.254Z,10.6
2019-02-28T03:41:26.008Z,10.6
2019-02-28T03:42:09.137Z,10.6
2019-02-28T03:43:08.837Z,10.6
2019-02-28T03:43:51.724Z,10.6
2019-02-28T03:44:39.782Z,10.6
2019-02-28T03:45:39.398Z,10.6
2019-02-28T03:46:19.938Z,10.6
2019-02-28T03:47:09.212Z,10.6
2019-02-28T03:48:07.415Z,10.6
2019-02-28T03:48:49.267Z,10.6
2019-02-28T03:49:39.622Z,10.6
2019-02-28T03:50:30.948Z,10.6
2019-02-28T03:51:20.624Z,10.6
2019-02-28T03:52:14.722Z,10.6
2019-02-28T03:53:00.444Z,10.6
2019-02-28T03:53:58.427Z,10.6
2019-02-28T03:54:39.755Z,10.7
2019-02-28T03:55:30.229Z,10.6
2019-02-28T03:56:23.267Z,10.6
2019-02-28T03:57:10.426Z,10.6
2019-02-28T03:58:09.004Z,10.6
2019-02-28T03:58:50.826Z,10.6
2019-02-28T03:59:40.331Z,10.6
2019-02-28T04:00:39.836Z,10.6
2019-02-28T04:01:20.873Z,10.6
2019-02-28T04:02:10.416Z,10.7
2019-02-28T04:03:06.955Z,10.6
2019-02-28T04:03:50.322Z,10.6
2019-02-28T04:04:50.400Z,10.6
2019-02-28T04:05:36.143Z,10.6
2019-02-28T04:06:20.905Z,10.6
2019-02-28T04:07:18.870Z,10.6
2019-02-28T04:08:02.606Z,10.6
2019-02-28T04:08:51.253Z,10.6
2019-02-28T04:09:48.740Z,10.6
2019-02-28T04:10:30.866Z,10.6
2019-02-28T04:11:21.578Z,10.6
2019-02-28T04:12:16.841Z,10.6
2019-02-28T04:13:01.562Z,10.6
2019-02-28T04:13:59.586Z,10.6
2019-02-28T04:14:41.495Z,10.6
2019-02-28T04:15:31.502Z,10.6
2019-02-28T04:16:20.911Z,10.6
2019-02-28T04:17:12.087Z,10.6
2019-02-28T04:18:09.868Z,10.6
2019-02-28T04:18:54.891Z,10.6
2019-02-28T04:19:41.125Z,10.6
2019-02-28T04:20:40.780Z,10.6
2019-02-28T04:21:22.357Z,10.6
2019-02-28T04:22:11.356Z,10.6
2019-02-28T04:23:08.335Z,10.6
2019-02-28T04:23:52.276Z,10.6
2019-02-28T04:24:41.170Z,10.6
2019-02-28T04:25:32.337Z,10.6
2019-02-28T04:26:22.757Z,10.6
2019-02-28T04:27:15.660Z,10.6
2019-02-28T04:28:02.664Z,10.6
2019-02-28T04:29:00.517Z,10.6
2019-02-28T04:29:42.680Z,10.6
2019-02-28T04:30:33.335Z,10.6
2019-02-28T04:31:27.805Z,10.6
2019-02-28T04:32:12.547Z,10.6
2019-02-28T04:33:08.769Z,10.6
2019-02-28T04:33:53.187Z,10.6
2019-02-28T04:34:45.703Z,10.6
2019-02-28T04:35:34.025Z,10.6
2019-02-28T04:36:23.469Z,10.6
2019-02-28T04:37:17.881Z,10.6
2019-02-28T04:38:03.769Z,10.6
2019-02-28T04:38:56.419Z,10.6
2019-02-28T04:39:42.465Z,10.6
2019-02-28T04:40:35.319Z,10.6
2019-02-28T04:41:23.117Z,10.6
2019-02-28T04:42:14.236Z,10.6
2019-02-28T04:43:03.275Z,10.6
2019-02-28T04:43:52.761Z,10.6
2019-02-28T04:44:43.878Z,10.6
2019-02-28T04:45:33.638Z,10.6
2019-02-28T04:46:23.674Z,10.6
2019-02-28T04:47:14.238Z,10.6
2019-02-28T04:48:02.768Z,10.6
2019-02-28T04:48:55.766Z,10.6
2019-02-28T04:49:43.190Z,10.6
2019-02-28T04:50:39.919Z,10.6
2019-02-28T04:51:22.718Z,10.6
2019-02-28T04:52:17.716Z,10.6
2019-02-28T04:53:04.216Z,10.6
2019-02-28T04:53:58.420Z,10.6
2019-02-28T04:54:43.698Z,10.6
2019-02-28T04:55:42.218Z,10.6
2019-02-28T04:56:23.800Z,10.6
2019-02-28T04:57:20.675Z,10.6
2019-02-28T04:58:04.780Z,10.6
2019-02-28T04:58:59.483Z,10.6
2019-02-28T04:59:45.168Z,10.6
2019-02-28T05:00:38.864Z,10.6
2019-02-28T05:01:24.988Z,10.6
2019-02-28T05:02:19.634Z,10.6
2019-02-28T05:03:04.827Z,10.6
2019-02-28T05:04:02.978Z,10.6
2019-02-28T05:04:44.428Z,10.6
2019-02-28T05:05:34.267Z,10.6
2019-02-28T05:06:29.508Z,10.6
2019-02-28T05:07:14.831Z,10.6
2019-02-28T05:08:11.440Z,10.6
2019-02-28T05:08:55.110Z,10.6
2019-02-28T05:09:50.757Z,10.6
2019-02-28T05:10:35.065Z,10.6
2019-02-28T05:11:33.669Z,10.6
2019-02-28T05:12:14.900Z,10.6
2019-02-28T05:13:05.254Z,10.6
2019-02-28T05:13:57.452Z,10.6
2019-02-28T05:14:44.637Z,10.6
2019-02-28T05:15:44.397Z,10.6
2019-02-28T05:16:25.803Z,10.6
2019-02-28T05:17:14.739Z,10.6
2019-02-28T05:18:04.750Z,10.5
2019-02-28T05:19:02.859Z,10.6
2019-02-28T05:19:46.229Z,10.6
2019-02-28T05:20:38.372Z,10.6
2019-02-28T05:21:27.964Z,10.6
2019-02-28T05:22:15.574Z,10.6
2019-02-28T05:23:10.322Z,10.6
2019-02-28T05:23:56.276Z,10.6
2019-02-28T05:24:50.289Z,10.6
2019-02-28T05:25:36.649Z,10.5
2019-02-28T05:26:32.276Z,10.5
2019-02-28T05:27:15.661Z,10.5
2019-02-28T05:28:09.801Z,10.5
2019-02-28T05:28:55.794Z,10.5
2019-02-28T05:29:50.724Z,10.6
2019-02-28T05:30:36.003Z,10.6
2019-02-28T05:31:32.329Z,10.6
2019-02-28T05:32:16.554Z,10.6
2019-02-28T05:33:10.602Z,10.6
2019-02-28T05:33:56.671Z,10.6
2019-02-28T05:34:54.021Z,10.6
2019-02-28T05:35:36.539Z,10.6
2019-02-28T05:36:27.162Z,10.6
2019-02-28T05:37:21.161Z,10.6
2019-02-28T05:38:07.590Z,10.6
2019-02-28T05:39:03.839Z,10.6
2019-02-28T05:39:49.446Z,10.6
2019-02-28T05:40:43.403Z,10.6
2019-02-28T05:41:27.795Z,10.6
2019-02-28T05:42:17.053Z,10.6
2019-02-28T05:43:07.661Z,10.6
2019-02-28T05:43:57.096Z,10.6
2019-02-28T05:44:49.113Z,10.6
2019-02-28T05:45:37.990Z,10.6
2019-02-28T05:46:32.807Z,10.6
2019-02-28T05:47:17.346Z,10.6
2019-02-28T05:48:11.503Z,10.6
2019-02-28T05:48:57.475Z,10.6
2019-02-28T05:49:49.060Z,10.6
2019-02-28T05:50:37.795Z,10.6
2019-02-28T05:51:32.295Z,10.6
2019-02-28T05:52:17.975Z,10.6
2019-02-28T05:53:16.240Z,10.6
2019-02-28T05:53:58.652Z,10.6
2019-02-28T05:54:53.854Z,10.7
2019-02-28T05:55:39.650Z,10.7
2019-02-28T05:56:32.735Z,10.7
2019-02-28T05:57:18.507Z,10.7
2019-02-28T05:58:07.302Z,10.7
2019-02-28T05:58:59.965Z,10.7
2019-02-28T05:59:48.717Z,10.7
2019-02-28T06:00:45.688Z,10.7
2019-02-28T06:01:27.767Z,10.7
2019-02-28T06:02:28.112Z,10.8
2019-02-28T06:03:10.999Z,10.7
2019-02-28T06:05:56.320Z,10.7
2019-02-28T06:06:46.140Z,10.8
2019-02-28T06:07:37.969Z,10.8
2019-02-28T06:08:26.788Z,10.8
2019-02-28T06:09:21.925Z,10.8
2019-02-28T06:10:07.049Z,10.7
2019-02-28T06:11:05.470Z,10.7
2019-02-28T06:11:47.774Z,10.7
2019-02-28T06:12:37.018Z,10.7
2019-02-28T06:13:27.345Z,10.7
2019-02-28T06:14:17.710Z,10.7
2019-02-28T06:15:10.993Z,10.8
2019-02-28T06:15:57.318Z,10.8
2019-02-28T06:16:54.536Z,10.8
2019-02-28T06:17:37.798Z,10.8
2019-02-28T06:18:37.787Z,10.8
2019-02-28T06:19:17.465Z,10.8
2019-02-28T06:20:08.112Z,10.8
2019-02-28T06:21:00.268Z,10.8
2019-02-28T06:21:47.615Z,10.8
2019-02-28T06:22:43.658Z,10.8
2019-02-28T06:23:27.530Z,10.8
2019-02-28T06:24:21.595Z,10.8
2019-02-28T06:25:08.337Z,10.8
2019-02-28T06:26:06.149Z,10.9
2019-02-28T06:26:48.797Z,10.9
2019-02-28T06:27:56.755Z,10.9
2019-02-28T06:28:35.601Z,10.9
2019-02-28T06:29:19.020Z,10.9
2019-02-28T06:30:12.195Z,11
2019-02-28T06:31:00.830Z,11
2019-02-28T06:31:54.715Z,11
2019-02-28T06:32:38.175Z,11.1
2019-02-28T06:33:35.192Z,11.1
2019-02-28T06:34:18.520Z,11.1
2019-02-28T06:35:08.610Z,11.2
2019-02-28T06:36:04.427Z,11.2
2019-02-28T06:36:49.591Z,11.2
2019-02-28T06:37:45.297Z,11.3
2019-02-28T06:38:29.351Z,11.3
2019-02-28T06:39:20.847Z,11.3
2019-02-28T06:40:08.341Z,11.3
2019-02-28T06:40:58.668Z,11.3
2019-02-28T06:41:49.296Z,11.3
2019-02-28T06:42:39.089Z,11.3
2019-02-28T06:43:28.823Z,11.4
2019-02-28T06:44:19.721Z,11.4
2019-02-28T06:45:10.491Z,11.4
2019-02-28T06:45:59.006Z,11.5
2019-02-28T06:46:48.773Z,11.5
2019-02-28T06:47:41.461Z,11.6
2019-02-28T06:48:34.306Z,11.6
2019-02-28T06:49:20.371Z,11.6
2019-02-28T06:50:13.810Z,11.6
2019-02-28T06:50:58.823Z,11.6
2019-02-28T06:51:55.545Z,11.4
2019-02-28T06:52:39.878Z,11.3
2019-02-28T06:53:37.791Z,11.3
2019-02-28T06:54:19.848Z,11.4
2019-02-28T06:55:14.685Z,11.5
2019-02-28T06:56:00.258Z,11.6
2019-02-28T06:56:50.051Z,11.6
2019-02-28T06:57:40.675Z,11.7
2019-02-28T06:58:36.920Z,11.7
2019-02-28T06:59:19.905Z,11.8
2019-02-28T07:00:16.171Z,11.8
2019-02-28T07:01:01.213Z,11.8
2019-02-28T07:01:57.715Z,11.8
2019-02-28T07:02:39.770Z,11.8
2019-02-28T07:03:30.487Z,11.8
2019-02-28T07:06:03.950Z,11.8
2019-02-28T07:06:46.993Z,11.8
2019-02-28T07:07:36.419Z,11.8
2019-02-28T07:08:37.132Z,11.8
2019-02-28T07:09:17.662Z,11.8
2019-02-28T07:10:16.319Z,11.7
2019-02-28T07:10:57.575Z,11.7
2019-02-28T07:11:46.995Z,11.8
2019-02-28T07:12:41.058Z,11.8
2019-02-28T07:13:27.385Z,11.8
2019-02-28T07:14:22.257Z,11.7
2019-02-28T07:15:08.090Z,11.7
2019-02-28T07:16:07.332Z,11.8
2019-02-28T07:16:47.959Z,11.7
2019-02-28T07:17:38.262Z,11.7
2019-02-28T07:18:28.489Z,11.7
2019-02-28T07:19:17.767Z,11.8
2019-02-28T07:20:13.607Z,11.7
2019-02-28T07:20:58.472Z,11.8
2019-02-28T07:21:52.476Z,11.8
2019-02-28T07:22:39.993Z,11.8
2019-02-28T07:23:37.309Z,11.8
2019-02-28T07:24:18.704Z,11.8
2019-02-28T07:25:15.305Z,11.8
2019-02-28T07:25:59.901Z,11.8
2019-02-28T07:26:53.607Z,11.8
2019-02-28T07:27:38.049Z,11.8
2019-02-28T07:28:29.113Z,11.8
2019-02-28T07:29:20.581Z,11.8
2019-02-28T07:30:09.374Z,11.8
2019-02-28T07:30:59.599Z,11.8
2019-02-28T07:31:49.241Z,11.8
2019-02-28T07:32:43.291Z,11.8
2019-02-28T07:33:29.081Z,11.8
2019-02-28T07:34:28.771Z,11.8
2019-02-28T07:35:09.201Z,11.8
2019-02-28T07:35:58.989Z,11.8
2019-02-28T07:36:53.586Z,11.8
2019-02-28T07:37:39.623Z,11.8
2019-02-28T07:38:36.156Z,11.8
2019-02-28T07:39:19.462Z,11.8
2019-02-28T07:40:09.268Z,11.8
2019-02-28T07:40:59.493Z,11.8
2019-02-28T07:41:49.753Z,11.8
2019-02-28T07:42:46.448Z,11.8
2019-02-28T07:43:29.392Z,11.8
2019-02-28T07:44:26.812Z,11.8
2019-02-28T07:45:11.975Z,11.8
2019-02-28T07:46:00.151Z,11.8
2019-02-28T07:46:50.833Z,11.8
2019-02-28T07:47:40.265Z,11.8
2019-02-28T07:48:37.792Z,11.8
2019-02-28T07:49:19.675Z,11.8
2019-02-28T07:50:16.222Z,11.8
2019-02-28T07:51:01.737Z,11.8
2019-02-28T07:51:49.680Z,11.8
2019-02-28T07:52:42.465Z,11.8
2019-02-28T07:53:30.577Z,11.8
2019-02-28T07:54:26.772Z,11.8
2019-02-28T07:55:09.065Z,11.8
2019-02-28T07:56:03.726Z,11.8
2019-02-28T07:56:52.640Z,11.8
2019-02-28T07:57:40.708Z,11.8
2019-02-28T07:58:39.101Z,11.8
2019-02-28T07:59:20.263Z,11.8
2019-02-28T08:00:10.360Z,11.8
2019-02-28T08:01:02.393Z,11.8
2019-02-28T08:01:52.955Z,11.8
2019-02-28T08:02:48.087Z,11.8
2019-02-28T08:03:30.784Z,11.8
2019-02-28T08:04:27.517Z,11.8
2019-02-28T08:05:11.309Z,11.8
2019-02-28T08:06:08.019Z,11.8
2019-02-28T08:06:51.568Z,11.8
2019-02-28T08:07:41.403Z,11.9
2019-02-28T08:08:35.141Z,11.8
2019-02-28T08:09:21.162Z,11.9
2019-02-28T08:10:18.262Z,11.9
2019-02-28T08:11:01.558Z,11.8
2019-02-28T08:11:58.814Z,11.9
2019-02-28T08:12:41.941Z,11.9
2019-02-28T08:13:31.191Z,11.9
2019-02-28T08:14:21.878Z,11.9
2019-02-28T08:15:11.398Z,11.9
2019-02-28T08:16:07.898Z,11.9
2019-02-28T08:16:51.679Z,11.9
2019-02-28T08:17:50.651Z,11.9
2019-02-28T08:18:34.270Z,11.9
2019-02-28T08:19:29.326Z,11.9
2019-02-28T08:20:12.263Z,11.9
2019-02-28T08:21:01.764Z,11.9
2019-02-28T08:21:58.506Z,11.9
2019-02-28T08:22:41.843Z,11.9
2019-02-28T08:23:39.128Z,11.9
2019-02-28T08:24:22.161Z,11.9
2019-02-28T08:25:15.551Z,11.9
2019-02-28T08:26:01.804Z,11.9
2019-02-28T08:26:58.776Z,11.9
2019-02-28T08:27:41.907Z,11.9
2019-02-28T08:28:41.493Z,11.9
2019-02-28T08:29:22.038Z,11.9
2019-02-28T08:30:12.912Z,11.9
2019-02-28T08:31:04.338Z,12.1
2019-02-28T08:31:52.664Z,12.1
2019-02-28T08:32:52.538Z,12.3
2019-02-28T08:33:33.401Z,12.4
2019-02-28T08:34:30.150Z,12.4
2019-02-28T08:35:13.508Z,12.5
2019-02-28T08:36:05.303Z,12.6
2019-02-28T08:36:55.638Z,12.6
2019-02-28T08:37:43.358Z,12.6
2019-02-28T08:38:40.741Z,12.6
2019-02-28T08:39:24.612Z,12.7
2019-02-28T08:40:19.446Z,12.7
2019-02-28T08:41:06.243Z,12.7
2019-02-28T08:42:04.723Z,12.8
2019-02-28T08:42:48.224Z,12.8
2019-02-28T08:43:35.868Z,12.8
2019-02-28T08:44:30.392Z,12.8
2019-02-28T08:45:16.403Z,12.8
2019-02-28T08:46:16.615Z,12.9
2019-02-28T08:46:55.991Z,12.8
2019-02-28T08:47:44.125Z,12.8
2019-02-28T08:48:42.463Z,12.8
2019-02-28T08:49:23.925Z,12.9
2019-02-28T08:50:22.602Z,12.9
2019-02-28T08:51:05.202Z,12.9
2019-02-28T08:51:53.781Z,12.9
2019-02-28T08:52:51.681Z,12.9
2019-02-28T08:53:34.173Z,12.9
2019-02-28T08:54:31.983Z,12.9
2019-02-28T08:55:16.875Z,12.9
2019-02-28T08:56:04.174Z,12.9
2019-02-28T08:56:58.352Z,12.9
2019-02-28T08:57:44.151Z,12.9
2019-02-28T08:58:37.577Z,12.9
2019-02-28T08:59:30.874Z,12.9
2019-02-28T09:00:14.329Z,13
2019-02-28T09:01:09.603Z,13
2019-02-28T09:01:54.722Z,12.9
2019-02-28T09:02:45.504Z,13
2019-02-28T09:03:36.146Z,13
2019-02-28T09:04:25.146Z,13.1
2019-02-28T09:05:15.007Z,13.1
2019-02-28T09:06:14.161Z,13.1
2019-02-28T09:06:54.794Z,13.1
2019-02-28T09:07:52.012Z,13.1
2019-02-28T09:08:34.738Z,13.1
2019-02-28T09:09:25.516Z,13.1
2019-02-28T09:10:20.711Z,13.1
2019-02-28T09:11:05.110Z,13.1
2019-02-28T09:12:03.776Z,13.1
2019-02-28T09:12:45.991Z,13.1
2019-02-28T09:13:35.801Z,13.1
2019-02-28T09:14:26.485Z,13.1
2019-02-28T09:15:16.186Z,13.1
2019-02-28T09:16:11.548Z,13.1
2019-02-28T09:16:55.731Z,13.1
2019-02-28T09:17:46.101Z,13.1
2019-02-28T09:18:36.218Z,13.1
2019-02-28T09:19:25.881Z,13.1
2019-02-28T09:20:18.662Z,13.1
2019-02-28T09:21:06.590Z,13.1
2019-02-28T09:22:01.467Z,13.2
2019-02-28T09:22:45.869Z,13.2
2019-02-28T09:23:42.858Z,13.2
2019-02-28T09:24:28.491Z,13.2
2019-02-28T09:25:22.865Z,13.2
2019-02-28T09:26:07.805Z,13.2
2019-02-28T09:26:56.437Z,13.2
2019-02-28T09:27:48.040Z,13.2
2019-02-28T09:28:36.560Z,13.2
2019-02-28T09:29:30.560Z,13.2
2019-02-28T09:30:17.195Z,13.2
2019-02-28T09:31:13.722Z,13.2
2019-02-28T09:31:59.178Z,13.2
2019-02-28T09:32:52.759Z,13.2
2019-02-28T09:33:37.469Z,13.2
2019-02-28T09:34:26.492Z,13.3
2019-02-28T09:35:23.194Z,13.2
2019-02-28T09:36:06.930Z,13.2
2019-02-28T09:37:04.622Z,13.2
2019-02-28T09:37:47.429Z,13.3
2019-02-28T09:38:37.857Z,13.3
2019-02-28T09:39:28.379Z,13.3
2019-02-28T09:40:17.952Z,13.3
2019-02-28T09:41:12.854Z,13.3
2019-02-28T09:41:57.452Z,13.3
2019-02-28T09:42:56.155Z,13.3
2019-02-28T09:43:37.049Z,13.3
2019-02-28T09:44:32.489Z,13.3
2019-02-28T09:45:17.699Z,13.3
2019-02-28T09:46:12.400Z,13.3
2019-02-28T09:47:00.159Z,13.3
2019-02-28T09:47:48.082Z,13.3
2019-02-28T09:48:45.517Z,13.3
2019-02-28T09:49:27.706Z,13.3
2019-02-28T09:50:24.825Z,13.3
2019-02-28T09:51:07.794Z,13.3
2019-02-28T09:51:58.419Z,13.3
2019-02-28T09:52:50.674Z,13.3
2019-02-28T09:53:38.606Z,13.3
2019-02-28T09:54:32.866Z,13.3
2019-02-28T09:55:18.667Z,13.3
2019-02-28T09:56:15.096Z,13.3
2019-02-28T09:57:00.991Z,13.3
2019-02-28T09:57:58.058Z,13.3
2019-02-28T09:58:38.906Z,13.4
2019-02-28T09:59:28.688Z,13.4
2019-02-28T10:00:21.181Z,13.4
2019-02-28T10:01:09.118Z,13.4
2019-02-28T10:02:16.340Z,13.4
2019-02-28T10:02:55.486Z,13.4
2019-02-28T10:03:40.903Z,13.4
2019-02-28T10:04:35.418Z,13.4
2019-02-28T10:07:02.403Z,13.4
2019-02-28T10:07:46.873Z,13.4
2019-02-28T10:08:43.404Z,13.4
2019-02-28T10:09:27.186Z,13.4
2019-02-28T10:10:26.535Z,13.4
2019-02-28T10:11:23.510Z,13.4
2019-02-28T10:11:56.490Z,13.5
2019-02-28T10:12:50.910Z,13.5
2019-02-28T10:13:39.086Z,13.4
2019-02-28T10:14:35.108Z,13.5
2019-02-28T10:15:17.947Z,13.4
2019-02-28T10:16:06.587Z,13.5
2019-02-28T10:17:01.348Z,13.5
2019-02-28T10:17:49.452Z,13.5
2019-02-28T10:18:44.689Z,13.5
2019-02-28T10:19:29.835Z,13.5
2019-02-28T10:20:19.350Z,13.6
2019-02-28T10:21:10.445Z,13.6
2019-02-28T10:22:00.755Z,13.6
2019-02-28T10:22:54.177Z,13.6
2019-02-28T10:23:37.635Z,13.6
2019-02-28T10:24:36.242Z,13.6
2019-02-28T10:25:18.217Z,13.6
2019-02-28T10:26:08.282Z,13.6
2019-02-28T10:27:00.807Z,13.6
2019-02-28T10:27:48.407Z,13.6
2019-02-28T10:28:38.527Z,13.6
2019-02-28T10:29:28.527Z,13.6
2019-02-28T10:30:37.329Z,13.6
2019-02-28T10:31:08.614Z,13.6
2019-02-28T10:31:58.377Z,13.6
2019-02-28T10:32:52.024Z,13.6
2019-02-28T10:33:38.519Z,13.6
2019-02-28T10:34:36.901Z,13.6
2019-02-28T10:35:20.457Z,13.6
2019-02-28T10:36:15.827Z,13.6
2019-02-28T10:36:58.737Z,13.6
2019-02-28T10:37:49.364Z,13.6
2019-02-28T10:38:41.846Z,13.6
2019-02-28T10:39:29.241Z,13.7
2019-02-28T10:40:25.959Z,13.6
2019-02-28T10:41:09.364Z,13.7
2019-02-28T10:42:06.360Z,13.6
2019-02-28T10:42:51.940Z,13.6
2019-02-28T10:43:39.769Z,13.7
2019-02-28T10:44:36.429Z,13.6
2019-02-28T10:45:19.024Z,13.6
2019-02-28T10:46:09.386Z,13.6
2019-02-28T10:47:02.926Z,13.6
2019-02-28T10:47:49.741Z,13.6
2019-02-28T10:48:57.423Z,13.7
2019-02-28T10:49:33.605Z,13.7
2019-02-28T10:50:19.922Z,13.7
2019-02-28T10:51:22.030Z,13.7
2019-02-28T10:51:59.186Z,13.8
2019-02-28T10:52:50.168Z,13.7
2019-02-28T10:53:46.093Z,13.8
2019-02-28T10:54:30.510Z,13.8
2019-02-28T10:55:26.328Z,13.8
2019-02-28T10:56:10.033Z,13.8
2019-02-28T10:56:59.832Z,13.8
2019-02-28T10:57:50.415Z,13.8
2019-02-28T10:58:39.952Z,13.8
2019-02-28T10:59:33.258Z,13.8
2019-02-28T11:00:22.124Z,13.8
2019-02-28T11:01:16.922Z,13.8
2019-02-28T11:02:01.029Z,13.8
2019-02-28T11:02:59.950Z,13.8
2019-02-28T11:03:41.462Z,13.8
2019-02-28T11:04:34.639Z,13.8
2019-02-28T11:05:29.353Z,13.8
2019-02-28T11:06:11.400Z,13.8
2019-02-28T11:07:06.985Z,13.8
2019-02-28T11:07:53.518Z,13.8
2019-02-28T11:08:41.212Z,13.8
2019-02-28T11:09:33.947Z,13.8
2019-02-28T11:10:21.310Z,13.8
2019-02-28T11:11:17.802Z,13.8
2019-02-28T11:12:01.144Z,13.9
2019-02-28T11:12:54.224Z,13.9
2019-02-28T11:13:41.243Z,13.8
2019-02-28T11:14:31.604Z,13.8
2019-02-28T11:15:23.129Z,13.9
2019-02-28T11:16:11.702Z,13.9
2019-02-28T11:17:17.250Z,13.9
2019-02-28T11:17:53.105Z,13.9
2019-02-28T11:18:46.983Z,13.9
2019-02-28T11:19:31.437Z,13.9
2019-02-28T11:20:36.406Z,13.9
2019-02-28T11:21:11.192Z,13.9
2019-02-28T11:22:09.356Z,13.9
2019-02-28T11:22:52.131Z,13.9
2019-02-28T11:23:41.667Z,13.9
2019-02-28T11:24:35.571Z,13.9
2019-02-28T11:25:21.763Z,13.9
2019-02-28T11:26:18.754Z,13.9
2019-02-28T11:27:03.516Z,13.9
2019-02-28T11:27:55.271Z,13.9
2019-02-28T11:28:42.539Z,13.9
2019-02-28T11:29:36.909Z,13.9
2019-02-28T11:30:21.586Z,13.9
2019-02-28T11:31:20.061Z,13.9
2019-02-28T11:32:05.561Z,13.9
2019-02-28T11:32:52.866Z,14
2019-02-28T11:33:48.146Z,14
2019-02-28T11:34:33.292Z,14
2019-02-28T11:35:29.052Z,14
2019-02-28T11:36:14.690Z,14
2019-02-28T11:37:09.888Z,14
2019-02-28T11:37:53.995Z,14
2019-02-28T11:38:43.235Z,14
2019-02-28T11:39:41.283Z,14
2019-02-28T11:40:23.625Z,14
2019-02-28T11:41:20.184Z,14
2019-02-28T11:42:05.058Z,14
2019-02-28T11:42:53.820Z,14
2019-02-28T11:43:46.455Z,14
2019-02-28T11:44:33.405Z,14
2019-02-28T11:45:32.982Z,14
2019-02-28T11:46:13.460Z,14
2019-02-28T11:47:02.816Z,14
2019-02-28T11:47:53.652Z,14.1
2019-02-28T11:48:44.227Z,14.1
2019-02-28T11:49:37.187Z,14.1
2019-02-28T11:50:24.005Z,14
2019-02-28T11:51:20.000Z,14.1
2019-02-28T11:52:04.407Z,14.1
2019-02-28T11:52:53.167Z,14.1
2019-02-28T11:53:48.290Z,14.1
2019-02-28T11:54:33.730Z,14.1
2019-02-28T11:55:31.466Z,14.1
2019-02-28T11:56:13.590Z,14.1
2019-02-28T11:57:13.522Z,14.1
2019-02-28T11:57:53.988Z,14.1
2019-02-28T11:58:44.614Z,14.1
2019-02-28T11:59:34.107Z,14.1
2019-02-28T12:00:24.719Z,14.1
2019-02-28T12:01:18.329Z,14.1
2019-02-28T12:02:04.829Z,14.1
2019-02-28T12:03:11.036Z,14.1
2019-02-28T12:03:44.834Z,14.1
2019-02-28T12:04:37.368Z,14.1
2019-02-28T12:07:05.404Z,14.1
2019-02-28T12:07:46.981Z,14.1
2019-02-28T12:08:37.281Z,14.1
2019-02-28T12:09:28.451Z,14.1
2019-02-28T12:10:17.397Z,14.1
2019-02-28T12:11:10.879Z,14.1
2019-02-28T12:11:57.493Z,14.1
2019-02-28T12:12:53.393Z,14.1
2019-02-28T12:13:37.426Z,14.1
2019-02-28T12:14:33.104Z,14.1
2019-02-28T12:15:17.228Z,14.1
2019-02-28T12:16:07.518Z,14.1
2019-02-28T12:17:01.755Z,14.1
2019-02-28T12:17:47.651Z,14.1
2019-02-28T12:18:44.657Z,14.1
2019-02-28T12:19:28.966Z,14.1
2019-02-28T12:20:18.126Z,14.1
2019-02-28T12:21:12.922Z,14.1
2019-02-28T12:21:57.898Z,14.2
2019-02-28T12:22:57.168Z,14.2
2019-02-28T12:23:36.941Z,14.1
2019-02-28T12:24:33.763Z,14.2
2019-02-28T12:25:18.433Z,14.2
2019-02-28T12:26:07.973Z,14.2
2019-02-28T12:27:01.723Z,14.2
2019-02-28T12:27:48.593Z,14.2
2019-02-28T12:28:44.238Z,14.2
2019-02-28T12:29:28.801Z,14.2
2019-02-28T12:30:26.583Z,14.1
2019-02-28T12:31:09.209Z,14.1
2019-02-28T12:31:58.010Z,14.2
2019-02-28T12:32:55.015Z,14.2
2019-02-28T12:33:38.198Z,14.1
2019-02-28T12:34:33.432Z,14.2
2019-02-28T12:35:18.272Z,14.1
2019-02-28T12:36:11.202Z,14.2
2019-02-28T12:37:00.950Z,14.2
2019-02-28T12:37:48.457Z,14.2
2019-02-28T12:38:39.355Z,14.2
2019-02-28T12:39:36.285Z,14.1
2019-02-28T12:40:19.659Z,14.2
2019-02-28T12:41:08.672Z,14.1
2019-02-28T12:42:05.229Z,14.1
2019-02-28T12:42:49.349Z,14.1
2019-02-28T12:43:43.531Z,14.1
2019-02-28T12:44:29.165Z,14.1
2019-02-28T12:45:26.025Z,14.1
2019-02-28T12:46:09.034Z,14.1
2019-02-28T12:46:59.352Z,14.1
2019-02-28T12:47:51.900Z,14.1
2019-02-28T12:48:39.487Z,14.1
2019-02-28T12:49:35.202Z,14.2
2019-02-28T12:50:19.604Z,14.1
2019-02-28T12:51:14.440Z,14.1
2019-02-28T12:51:59.406Z,14.2
2019-02-28T12:52:55.757Z,14.1
2019-02-28T12:53:41.426Z,14.2
2019-02-28T12:54:38.671Z,14.1
2019-02-28T12:55:19.926Z,14.2
2019-02-28T12:56:16.237Z,14.2
2019-02-28T12:57:00.614Z,14.1
2019-02-28T12:57:58.660Z,14.1
2019-02-28T12:58:49.986Z,14.1
2019-02-28T12:59:30.841Z,14.1
2019-02-28T13:00:27.915Z,14.1
2019-02-28T13:01:11.026Z,14.1
2019-02-28T13:02:00.726Z,14.1
2019-02-28T13:02:54.176Z,14.1
2019-02-28T13:03:40.821Z,14.1
2019-02-28T13:04:37.596Z,14.1
2019-02-28T13:05:24.498Z,14.1
2019-02-28T13:06:10.766Z,14.1
2019-02-28T13:07:07.559Z,14.1
2019-02-28T13:07:53.428Z,14.1
2019-02-28T13:08:46.605Z,14.1
2019-02-28T13:09:33.126Z,14.1
2019-02-28T13:10:30.925Z,14
2019-02-28T13:11:12.413Z,14
2019-02-28T13:12:01.457Z,14.1
2019-02-28T13:13:11.478Z,14.1
2019-02-28T13:13:41.549Z,14.1
2019-02-28T13:14:31.740Z,14.1
2019-02-28T13:15:21.918Z,14
2019-02-28T13:16:11.903Z,14.1
2019-02-28T13:17:05.967Z,14.1
2019-02-28T13:17:51.047Z,14.1
2019-02-28T13:18:48.562Z,14
2019-02-28T13:19:31.927Z,14
2019-02-28T13:20:21.513Z,14
2019-02-28T13:21:19.740Z,14
2019-02-28T13:22:02.097Z,14
2019-02-28T13:22:51.680Z,14
2019-02-28T13:23:41.542Z,14
2019-02-28T13:24:32.515Z,14
2019-02-28T13:25:30.435Z,14
2019-02-28T13:26:12.582Z,14
2019-02-28T13:27:02.135Z,14
2019-02-28T13:27:55.880Z,14
2019-02-28T13:28:42.847Z,14.1
2019-02-28T13:29:40.315Z,14
2019-02-28T13:30:22.867Z,14.1
2019-02-28T13:31:12.784Z,14
2019-02-28T13:32:10.230Z,14
2019-02-28T13:32:52.839Z,14.1
2019-02-28T13:33:43.349Z,14.1
2019-02-28T13:34:38.494Z,14.1
2019-02-28T13:35:22.820Z,14.1
2019-02-28T13:36:22.722Z,14
2019-02-28T13:37:10.791Z,14
2019-02-28T13:37:53.826Z,14
2019-02-28T13:38:43.221Z,14.1
2019-02-28T13:39:40.655Z,14.1
2019-02-28T13:40:25.812Z,14.1
2019-02-28T13:41:26.374Z,14.1
2019-02-28T13:42:11.946Z,14.1
2019-02-28T13:42:53.812Z,14.1
2019-02-28T13:43:44.028Z,14.1
2019-02-28T13:44:42.613Z,14.1
2019-02-28T13:45:32.104Z,14
2019-02-28T13:46:16.861Z,14.1
2019-02-28T13:47:11.994Z,14
2019-02-28T13:47:55.918Z,14
2019-02-28T13:48:43.866Z,14
2019-02-28T13:49:36.045Z,14
2019-02-28T13:50:37.060Z,14
2019-02-28T13:51:17.348Z,14
2019-02-28T13:52:06.616Z,14
2019-02-28T13:53:19.283Z,14
2019-02-28T13:53:43.664Z,14
2019-02-28T13:54:43.726Z,14.1
2019-02-28T13:55:28.517Z,14.1
2019-02-28T13:56:14.167Z,14
2019-02-28T13:57:12.635Z,14.1
2019-02-28T13:57:55.250Z,14.1
2019-02-28T13:58:44.493Z,14.1
2019-02-28T13:59:40.018Z,14.1
2019-02-28T14:00:25.106Z,14.1
2019-02-28T14:01:14.310Z,14
2019-02-28T14:02:04.842Z,14.1
2019-02-28T14:02:55.207Z,14
2019-02-28T14:03:52.812Z,14.1
2019-02-28T14:04:35.342Z,14.1
2019-02-28T14:05:24.824Z,14.1
2019-02-28T14:07:56.608Z,14
2019-02-28T14:08:53.460Z,14
2019-02-28T14:09:37.234Z,14
2019-02-28T14:10:35.234Z,14
2019-02-28T14:11:19.223Z,14
2019-02-28T14:12:07.218Z,14
2019-02-28T14:13:04.547Z,14
2019-02-28T14:13:47.027Z,14
2019-02-28T14:14:44.507Z,14
2019-02-28T14:15:30.112Z,14
2019-02-28T14:16:17.426Z,14
2019-02-28T14:17:10.064Z,14
2019-02-28T14:17:57.164Z,14.1
2019-02-28T14:18:55.705Z,14.1
2019-02-28T14:19:37.301Z,14.1
2019-02-28T14:20:34.214Z,14.1
2019-02-28T14:21:17.703Z,14.1
2019-02-28T14:22:12.894Z,14.1
2019-02-28T14:22:57.563Z,14.1
2019-02-28T14:23:47.646Z,14.1
2019-02-28T14:24:40.336Z,14.1
2019-02-28T14:25:28.001Z,14.1
2019-02-28T14:26:22.284Z,14.1